createdAt,value
2018-02-27T00:02:25.955Z,11.20
2018-02-27T00:04:52.663Z,10.90
2018-02-27T00:07:19.290Z,12.68
2018-02-27T00:09:45.925Z,11.70
2018-02-27T00:12:12.799Z,9.80
2018-02-27T00:14:39.503Z,12.02
2018-02-27T00:17:06.232Z,9.60
2018-02-27T00:19:32.859Z,9.75
2018-02-27T00:21:59.525Z,12.30
2018-02-27T00:24:26.270Z,9.63
2018-02-27T00:26:52.909Z,10.30
2018-02-27T00:29:19.591Z,10.57
2018-02-27T00:31:46.305Z,11.40
2018-02-27T00:34:13.093Z,9.23
2018-02-27T00:36:39.786Z,10.68
2018-02-27T00:39:06.636Z,9.65
2018-02-27T00:41:33.432Z,12.02
2018-02-27T00:44:00.304Z,12.55
2018-02-27T00:46:27.050Z,10.77
2018-02-27T00:48:53.810Z,9.10
2018-02-27T00:51:20.427Z,11.38
2018-02-27T00:53:47.153Z,10.23
2018-02-27T00:56:13.830Z,9.63
2018-02-27T00:58:40.568Z,12.13
2018-02-27T01:01:07.312Z,10.00
2018-02-27T01:03:33.991Z,13.05
2018-02-27T01:06:00.794Z,14.75
2018-02-27T01:08:27.465Z,10.18
2018-02-27T01:10:54.168Z,11.27
2018-02-27T01:13:20.823Z,10.77
2018-02-27T01:15:47.734Z,12.70
2018-02-27T01:18:14.451Z,18.20
2018-02-27T01:20:41.234Z,14.32
2018-02-27T01:23:07.936Z,11.80
2018-02-27T01:25:34.581Z,10.07
2018-02-27T01:28:01.341Z,10.00
2018-02-27T01:30:28.065Z,11.07
2018-02-27T01:32:54.839Z,11.12
2018-02-27T01:35:21.552Z,11.45
2018-02-27T01:37:48.303Z,11.50
2018-02-27T01:40:14.955Z,10.50
2018-02-27T01:42:41.638Z,10.77
2018-02-27T01:45:08.344Z,12.85
2018-02-27T01:47:35.020Z,10.93
2018-02-27T01:50:01.710Z,11.65
2018-02-27T01:52:28.531Z,9.98
2018-02-27T01:54:55.287Z,9.90
2018-02-27T01:57:22.097Z,11.07
2018-02-27T01:59:48.836Z,11.95
2018-02-27T02:02:15.517Z,11.88
2018-02-27T02:04:42.177Z,11.27
2018-02-27T02:07:08.831Z,10.77
2018-02-27T02:09:35.488Z,13.30
2018-02-27T02:12:02.198Z,11.35
2018-02-27T02:14:29.010Z,10.82
2018-02-27T02:16:55.649Z,14.18
2018-02-27T02:19:22.356Z,13.82
2018-02-27T02:21:48.982Z,11.30
2018-02-27T02:24:15.601Z,11.40
2018-02-27T02:26:42.293Z,11.30
2018-02-27T02:29:09.027Z,12.85
2018-02-27T02:31:35.682Z,12.15
2018-02-27T02:34:02.340Z,10.68
2018-02-27T02:36:29.044Z,15.32
2018-02-27T02:38:55.755Z,10.00
2018-02-27T02:41:22.391Z,12.55
2018-02-27T02:43:49.027Z,15.55
2018-02-27T02:46:15.697Z,13.77
2018-02-27T02:48:42.363Z,12.43
2018-02-27T02:51:09.027Z,11.70
2018-02-27T02:53:35.640Z,11.48
2018-02-27T02:56:02.320Z,14.60
2018-02-27T02:58:29.027Z,12.60
2018-02-27T03:00:55.907Z,13.15
2018-02-27T03:03:22.659Z,12.90
2018-02-27T03:05:49.972Z,12.10
2018-02-27T03:08:16.621Z,12.32
2018-02-27T03:10:43.255Z,16.55
2018-02-27T03:13:09.954Z,14.75
2018-02-27T03:15:36.601Z,11.73
2018-02-27T03:18:03.284Z,17.23
2018-02-27T03:20:29.973Z,13.30
2018-02-27T03:22:56.717Z,12.52
2018-02-27T03:25:23.366Z,10.75
2018-02-27T03:27:50.173Z,11.70
2018-02-27T03:30:16.821Z,11.18
2018-02-27T03:32:43.443Z,9.98
2018-02-27T03:35:10.086Z,13.20
2018-02-27T03:37:36.847Z,12.73
2018-02-27T03:40:03.505Z,11.55
2018-02-27T03:42:30.312Z,13.98
2018-02-27T03:44:56.980Z,11.00
2018-02-27T03:47:23.691Z,10.18
2018-02-27T03:49:50.350Z,10.63
2018-02-27T03:52:16.967Z,13.07
2018-02-27T03:54:43.704Z,13.65
2018-02-27T03:57:10.342Z,13.60
2018-02-27T03:59:36.993Z,13.10
2018-02-27T04:02:04.494Z,10.40
2018-02-27T04:04:31.175Z,13.95
2018-02-27T04:06:57.824Z,12.65
2018-02-27T04:09:24.584Z,13.65
2018-02-27T04:11:51.287Z,13.07
2018-02-27T04:14:17.996Z,11.12
2018-02-27T04:16:44.692Z,10.10
2018-02-27T04:19:11.318Z,12.25
2018-02-27T04:21:37.956Z,13.95
2018-02-27T04:24:04.576Z,15.18
2018-02-27T04:26:31.220Z,11.10
2018-02-27T04:28:57.894Z,12.65
2018-02-27T04:31:24.616Z,11.20
2018-02-27T04:33:51.268Z,15.65
2018-02-27T04:36:17.954Z,10.52
2018-02-27T04:38:44.665Z,16.60
2018-02-27T04:41:11.412Z,14.25
2018-02-27T04:43:38.056Z,13.88
2018-02-27T04:46:04.720Z,12.37
2018-02-27T04:48:31.361Z,13.68
2018-02-27T04:50:58.002Z,15.00
2018-02-27T04:53:24.703Z,13.77
2018-02-27T04:55:51.434Z,11.25
2018-02-27T04:58:18.348Z,12.85
2018-02-27T05:00:44.977Z,11.90
2018-02-27T05:03:11.611Z,13.93
2018-02-27T05:05:38.242Z,11.63
2018-02-27T05:08:05.083Z,11.60
2018-02-27T05:10:31.963Z,11.38
2018-02-27T05:12:58.599Z,11.02
2018-02-27T05:15:25.219Z,11.80
2018-02-27T05:17:51.932Z,13.77
2018-02-27T05:20:18.596Z,12.90
2018-02-27T05:22:45.226Z,12.95
2018-02-27T05:25:11.859Z,12.35
2018-02-27T05:27:38.491Z,13.80
2018-02-27T05:30:05.270Z,14.57
2018-02-27T05:32:31.995Z,11.85
2018-02-27T05:34:58.666Z,17.60
2018-02-27T05:37:25.304Z,12.95
2018-02-27T05:39:52.019Z,14.75
2018-02-27T05:42:18.676Z,16.33
2018-02-27T05:44:45.401Z,15.18
2018-02-27T05:47:12.081Z,16.37
2018-02-27T05:49:38.733Z,16.23
2018-02-27T05:52:05.391Z,13.45
2018-02-27T05:54:32.277Z,12.30
2018-02-27T05:56:59.982Z,14.15
2018-02-27T05:59:26.872Z,15.02
2018-02-27T06:01:53.564Z,14.00
2018-02-27T06:04:20.324Z,11.20
2018-02-27T06:06:46.976Z,13.40
2018-02-27T06:09:15.078Z,12.02
2018-02-27T06:11:41.899Z,13.20
2018-02-27T06:14:08.560Z,14.73
2018-02-27T06:16:35.312Z,14.20
2018-02-27T06:19:02.083Z,14.10
2018-02-27T06:21:28.782Z,13.90
2018-02-27T06:23:56.130Z,13.62
2018-02-27T06:26:22.912Z,16.92
2018-02-27T06:28:49.590Z,10.25
2018-02-27T06:31:16.219Z,13.60
2018-02-27T06:33:42.846Z,14.05
2018-02-27T06:36:12.600Z,12.57
2018-02-27T06:38:39.552Z,12.48
2018-02-27T06:41:06.298Z,14.70
2018-02-27T06:43:32.930Z,12.88
2018-02-27T06:45:59.583Z,16.05
2018-02-27T06:48:26.368Z,13.00
2018-02-27T06:50:53.051Z,15.27
2018-02-27T06:53:19.724Z,14.38
2018-02-27T06:55:46.616Z,11.20
2018-02-27T06:58:13.427Z,13.95
2018-02-27T07:00:43.012Z,13.35
2018-02-27T07:03:09.780Z,13.43
2018-02-27T07:05:36.509Z,13.38
2018-02-27T07:08:03.163Z,11.50
2018-02-27T07:10:30.224Z,13.07
2018-02-27T07:12:57.981Z,14.87
2018-02-27T07:15:24.604Z,12.20
2018-02-27T07:17:51.308Z,18.17
2018-02-27T07:20:17.974Z,13.20
2018-02-27T07:22:44.794Z,13.60
2018-02-27T07:25:12.239Z,10.18
2018-02-27T07:27:38.845Z,10.80
2018-02-27T07:30:07.968Z,14.65
2018-02-27T07:32:34.768Z,10.65
2018-02-27T07:35:01.852Z,14.82
2018-02-27T07:37:30.315Z,10.18
2018-02-27T07:39:57.358Z,13.18
2018-02-27T07:42:23.993Z,16.45
2018-02-27T07:44:51.107Z,12.45
2018-02-27T07:47:17.900Z,13.70
2018-02-27T07:49:44.503Z,15.05
2018-02-27T07:52:11.210Z,11.60
2018-02-27T07:54:37.841Z,10.93
2018-02-27T07:57:04.491Z,12.80
2018-02-27T07:59:31.183Z,15.05
2018-02-27T08:01:57.874Z,12.43
2018-02-27T08:04:24.541Z,10.85
2018-02-27T08:06:51.406Z,10.80
2018-02-27T08:09:18.113Z,10.05
2018-02-27T08:11:44.817Z,11.25
2018-02-27T08:14:11.554Z,12.85
2018-02-27T08:16:38.231Z,10.23
2018-02-27T08:19:04.958Z,10.48
2018-02-27T08:21:31.635Z,15.43
2018-02-27T08:23:58.314Z,15.52
2018-02-27T08:26:24.988Z,13.57
2018-02-27T08:28:51.725Z,10.63
2018-02-27T08:31:18.353Z,13.32
2018-02-27T08:33:45.020Z,9.80
2018-02-27T08:36:11.654Z,13.27
2018-02-27T08:38:38.389Z,10.77
2018-02-27T08:41:05.135Z,9.98
2018-02-27T08:43:31.869Z,14.05
2018-02-27T08:45:58.617Z,12.25
2018-02-27T08:48:25.290Z,11.93
2018-02-27T08:50:51.950Z,12.27
2018-02-27T08:53:18.930Z,14.82
2018-02-27T08:55:45.609Z,14.70
2018-02-27T08:58:12.293Z,14.32
2018-02-27T09:00:38.919Z,10.80
2018-02-27T09:03:05.660Z,10.50
2018-02-27T09:05:32.293Z,13.38
2018-02-27T09:07:58.935Z,11.57
2018-02-27T09:10:25.571Z,12.77
2018-02-27T09:12:52.242Z,11.63
2018-02-27T09:15:19.139Z,10.70
2018-02-27T09:17:45.787Z,13.70
2018-02-27T09:20:12.475Z,10.98
2018-02-27T09:22:39.143Z,11.12
2018-02-27T09:25:05.807Z,14.05
2018-02-27T09:27:32.535Z,12.80
2018-02-27T09:29:59.255Z,11.25
2018-02-27T09:32:25.922Z,11.52
2018-02-27T09:34:52.555Z,13.30
2018-02-27T09:37:19.212Z,12.00
2018-02-27T09:39:45.924Z,14.82
2018-02-27T09:42:12.633Z,12.32
2018-02-27T09:44:39.296Z,11.35
2018-02-27T09:47:06.610Z,14.00
2018-02-27T09:49:33.299Z,12.63
2018-02-27T09:51:59.961Z,14.32
2018-02-27T09:54:26.641Z,14.43
2018-02-27T09:56:53.309Z,15.55
2018-02-27T09:59:19.981Z,12.10
2018-02-27T10:01:46.684Z,13.23
2018-02-27T10:04:13.434Z,14.02
2018-02-27T10:06:40.104Z,14.73
2018-02-27T10:09:06.745Z,12.70
2018-02-27T10:11:33.394Z,12.20
2018-02-27T10:14:00.086Z,12.30
2018-02-27T10:16:26.728Z,14.25
2018-02-27T10:18:53.372Z,15.57
2018-02-27T10:21:20.037Z,14.30
2018-02-27T10:23:46.753Z,13.25
2018-02-27T10:26:13.454Z,13.30
2018-02-27T10:28:40.190Z,11.33
2018-02-27T10:31:06.862Z,10.82
2018-02-27T10:33:33.531Z,13.77
2018-02-27T10:36:00.375Z,15.40
2018-02-27T10:38:27.039Z,17.80
2018-02-27T10:40:53.721Z,15.10
2018-02-27T10:43:20.391Z,16.37
2018-02-27T10:45:47.079Z,14.90
2018-02-27T10:48:13.813Z,12.87
2018-02-27T10:50:40.499Z,13.63
2018-02-27T10:53:07.161Z,15.57
2018-02-27T10:55:33.949Z,17.77
2018-02-27T10:58:00.583Z,14.77
2018-02-27T11:00:32.798Z,15.33
2018-02-27T11:02:59.442Z,15.47
2018-02-27T11:05:26.079Z,14.80
2018-02-27T11:07:52.741Z,15.50
2018-02-27T11:10:19.486Z,15.87
2018-02-27T11:12:46.119Z,19.17
2018-02-27T11:15:12.854Z,16.75
2018-02-27T11:17:39.581Z,17.35
2018-02-27T11:20:06.267Z,14.10
2018-02-27T11:22:32.965Z,15.70
2018-02-27T11:24:59.607Z,15.55
2018-02-27T11:27:26.280Z,16.37
2018-02-27T11:29:53.168Z,17.83
2018-02-27T11:32:19.889Z,15.82
2018-02-27T11:34:46.620Z,18.02
2018-02-27T11:37:13.281Z,16.20
2018-02-27T11:39:40.047Z,15.45
2018-02-27T11:42:06.735Z,17.08
2018-02-27T11:44:33.378Z,15.20
2018-02-27T11:47:00.029Z,18.60
2018-02-27T11:49:26.680Z,16.20
2018-02-27T11:51:53.329Z,19.37
2018-02-27T11:54:20.052Z,19.05
2018-02-27T11:56:46.703Z,22.00
2018-02-27T11:59:13.397Z,15.95
2018-02-27T12:01:40.065Z,22.85
2018-02-27T12:04:06.712Z,19.30
2018-02-27T12:06:33.347Z,19.10
2018-02-27T12:09:00.220Z,20.65
2018-02-27T12:11:26.868Z,17.85
2018-02-27T12:13:53.610Z,22.75
2018-02-27T12:16:20.329Z,21.73
2018-02-27T12:18:48.130Z,21.75
2018-02-27T12:21:14.804Z,21.73
2018-02-27T12:23:41.447Z,20.42
2018-02-27T12:26:08.097Z,19.60
2018-02-27T12:28:34.746Z,22.00
2018-02-27T12:31:01.388Z,22.20
2018-02-27T12:33:28.345Z,22.87
2018-02-27T12:35:55.017Z,21.98
2018-02-27T12:38:21.713Z,21.70
2018-02-27T12:40:48.350Z,23.35
2018-02-27T12:43:15.037Z,25.40
2018-02-27T12:45:41.671Z,23.38
2018-02-27T12:48:08.341Z,26.50
2018-02-27T12:50:36.013Z,20.20
2018-02-27T12:53:04.404Z,19.42
2018-02-27T12:55:31.325Z,28.90
2018-02-27T12:57:57.976Z,22.42
2018-02-27T13:00:24.833Z,23.45
2018-02-27T13:02:51.484Z,21.12
2018-02-27T13:05:18.133Z,25.77
2018-02-27T13:07:44.812Z,24.35
2018-02-27T13:10:11.657Z,24.42
2018-02-27T13:12:38.325Z,25.48
2018-02-27T13:15:05.207Z,19.62
2018-02-27T13:17:31.883Z,25.40
2018-02-27T13:19:58.834Z,24.95
2018-02-27T13:22:26.055Z,21.48
2018-02-27T13:24:52.729Z,19.08
2018-02-27T13:27:20.068Z,22.87
2018-02-27T13:29:47.032Z,19.87
2018-02-27T13:32:14.372Z,18.55
2018-02-27T13:34:41.059Z,23.30
2018-02-27T13:37:09.338Z,23.65
2018-02-27T13:39:37.212Z,17.08
2018-02-27T13:42:04.166Z,23.92
2018-02-27T13:44:30.871Z,21.35
2018-02-27T13:46:57.763Z,23.83
2018-02-27T13:49:25.041Z,22.37
2018-02-27T13:51:51.198Z,26.27
2018-02-27T13:54:17.936Z,22.30
2018-02-27T13:56:44.892Z,27.40
2018-02-27T13:59:11.598Z,26.45
2018-02-27T14:01:38.256Z,25.85
2018-02-27T14:04:04.983Z,23.95
2018-02-27T14:06:31.937Z,28.42
2018-02-27T14:08:58.554Z,23.92
2018-02-27T14:11:25.231Z,26.95
2018-02-27T14:13:51.955Z,28.83
2018-02-27T14:16:18.872Z,25.80
2018-02-27T14:18:45.725Z,22.62
2018-02-27T14:21:12.684Z,22.98
2018-02-27T14:23:39.348Z,28.85
2018-02-27T14:26:06.012Z,22.70
2018-02-27T14:28:32.645Z,27.42
2018-02-27T14:30:59.337Z,22.92
2018-02-27T14:33:26.023Z,21.98
2018-02-27T14:35:52.939Z,23.35
2018-02-27T14:38:19.618Z,18.50
2018-02-27T14:40:46.300Z,21.95
2018-02-27T14:43:13.908Z,20.75
2018-02-27T14:45:40.566Z,22.60
2018-02-27T14:48:07.201Z,24.42
2018-02-27T14:50:33.917Z,25.77
2018-02-27T14:53:00.562Z,23.60
2018-02-27T14:55:27.370Z,27.33
2018-02-27T14:57:54.070Z,23.05
2018-02-27T15:00:20.699Z,24.25
2018-02-27T15:02:47.370Z,23.80
2018-02-27T15:05:14.004Z,27.35
2018-02-27T15:07:40.694Z,25.17
2018-02-27T15:10:07.323Z,23.87
2018-02-27T15:12:34.015Z,24.73
2018-02-27T15:15:00.772Z,22.65
2018-02-27T15:17:27.730Z,22.25
2018-02-27T15:19:55.488Z,25.37
2018-02-27T15:22:22.296Z,22.50
2018-02-27T15:24:49.124Z,25.60
2018-02-27T15:27:15.814Z,24.83
2018-02-27T15:29:42.929Z,22.30
2018-02-27T15:32:09.572Z,22.13
2018-02-27T15:34:36.256Z,22.23
2018-02-27T15:37:02.897Z,23.33
2018-02-27T15:39:29.726Z,20.27
2018-02-27T15:41:56.393Z,23.48
2018-02-27T15:44:23.100Z,23.20
2018-02-27T15:46:49.751Z,24.83
2018-02-27T15:49:16.526Z,21.42
2018-02-27T15:51:43.184Z,23.87
2018-02-27T15:54:10.406Z,23.55
2018-02-27T15:56:38.592Z,22.17
2018-02-27T15:59:05.361Z,24.45
2018-02-27T16:01:32.011Z,20.98
2018-02-27T16:03:58.702Z,19.95
2018-02-27T16:06:25.379Z,21.65
2018-02-27T16:08:52.090Z,26.25
2018-02-27T16:11:18.852Z,23.70
2018-02-27T16:13:45.553Z,24.15
2018-02-27T16:16:12.231Z,23.70
2018-02-27T16:18:39.043Z,24.95
2018-02-27T16:21:05.784Z,25.92
2018-02-27T16:23:32.826Z,21.83
2018-02-27T16:25:59.524Z,20.45
2018-02-27T16:28:26.285Z,22.55
2018-02-27T16:30:53.101Z,22.65
2018-02-27T16:33:19.827Z,20.55
2018-02-27T16:35:46.466Z,23.15
2018-02-27T16:38:13.142Z,22.98
2018-02-27T16:40:39.962Z,29.75
2018-02-27T16:43:06.641Z,21.52
2018-02-27T16:45:33.336Z,20.65
2018-02-27T16:48:00.034Z,19.30
2018-02-27T16:50:26.720Z,21.62
2018-02-27T16:52:53.397Z,20.58
2018-02-27T16:55:20.720Z,21.77
2018-02-27T16:57:47.460Z,20.08
2018-02-27T17:00:14.420Z,20.70
2018-02-27T17:02:41.241Z,18.37
2018-02-27T17:05:08.022Z,19.67
2018-02-27T17:07:34.699Z,23.33
2018-02-27T17:10:01.370Z,24.25
2018-02-27T17:12:28.520Z,23.17
2018-02-27T17:14:55.323Z,21.77
2018-02-27T17:17:22.022Z,22.75
2018-02-27T17:19:48.828Z,21.40
2018-02-27T17:22:15.499Z,18.65
2018-02-27T17:24:42.484Z,20.85
2018-02-27T17:27:10.012Z,19.12
2018-02-27T17:29:40.676Z,24.65
2018-02-27T17:32:07.515Z,21.30
2018-02-27T17:34:34.418Z,20.20
2018-02-27T17:37:01.569Z,21.15
2018-02-27T17:39:28.219Z,24.02
2018-02-27T17:41:55.197Z,21.98
2018-02-27T17:44:22.558Z,24.00
2018-02-27T17:46:49.357Z,20.00
2018-02-27T17:49:16.139Z,21.67
2018-02-27T17:51:42.973Z,22.73
2018-02-27T17:54:09.612Z,22.27
2018-02-27T17:56:36.396Z,22.42
2018-02-27T17:59:03.311Z,22.13
2018-02-27T18:01:30.032Z,21.65
2018-02-27T18:03:57.321Z,22.05
2018-02-27T18:06:24.251Z,21.92
2018-02-27T18:08:51.020Z,24.85
2018-02-27T18:11:17.762Z,21.92
2018-02-27T18:13:45.727Z,23.67
2018-02-27T18:16:12.423Z,19.50
2018-02-27T18:18:39.127Z,29.35
2018-02-27T18:21:05.810Z,23.98
2018-02-27T18:23:32.493Z,21.27
2018-02-27T18:25:59.249Z,20.08
2018-02-27T18:28:25.896Z,28.58
2018-02-27T18:30:52.847Z,26.98
2018-02-27T18:33:19.525Z,26.30
2018-02-27T18:35:46.216Z,25.42
2018-02-27T18:38:13.058Z,23.05
2018-02-27T18:40:39.889Z,22.62
2018-02-27T18:43:06.633Z,27.00
2018-02-27T18:45:33.311Z,28.10
2018-02-27T18:48:00.305Z,22.33
2018-02-27T18:50:26.997Z,27.52
2018-02-27T18:52:53.737Z,25.55
2018-02-27T18:55:20.522Z,25.73
2018-02-27T18:57:47.310Z,23.85
2018-02-27T19:00:14.048Z,20.48
2018-02-27T19:02:40.731Z,21.23
2018-02-27T19:05:07.397Z,23.45
2018-02-27T19:07:34.126Z,27.92
2018-02-27T19:10:00.959Z,31.15
2018-02-27T19:12:27.614Z,31.67
2018-02-27T19:14:54.241Z,29.90
2018-02-27T19:17:20.971Z,26.73
2018-02-27T19:19:47.648Z,21.90
2018-02-27T19:22:14.455Z,26.17
2018-02-27T19:24:41.492Z,26.98
2018-02-27T19:27:08.179Z,24.75
2018-02-27T19:29:34.968Z,29.70
2018-02-27T19:32:01.657Z,25.83
2018-02-27T19:34:28.496Z,23.17
2018-02-27T19:36:55.160Z,25.77
2018-02-27T19:39:21.909Z,29.27
2018-02-27T19:41:49.689Z,24.08
2018-02-27T19:44:16.378Z,27.05
2018-02-27T19:46:43.029Z,25.73
2018-02-27T19:49:10.179Z,26.00
2018-02-27T19:51:38.814Z,28.30
2018-02-27T19:54:05.938Z,29.77
2018-02-27T19:56:32.773Z,32.28
2018-02-27T19:58:59.452Z,28.30
2018-02-27T20:01:26.272Z,28.92
2018-02-27T20:03:52.962Z,31.90
2018-02-27T20:06:19.898Z,28.02
2018-02-27T20:08:46.607Z,24.33
2018-02-27T20:11:13.657Z,31.65
2018-02-27T20:13:40.486Z,27.85
2018-02-27T20:16:07.207Z,33.08
2018-02-27T20:18:33.941Z,29.90
2018-02-27T20:21:01.139Z,32.35
2018-02-27T20:23:33.533Z,24.95
2018-02-27T20:26:00.309Z,30.33
2018-02-27T20:28:32.940Z,28.20
2018-02-27T20:30:59.635Z,29.70
2018-02-27T20:33:26.752Z,29.50
2018-02-27T20:35:53.542Z,28.58
2018-02-27T20:38:26.380Z,31.92
2018-02-27T20:40:53.032Z,36.28
2018-02-27T20:43:19.758Z,33.00
2018-02-27T20:45:46.535Z,37.67
2018-02-27T20:48:13.198Z,38.60
2018-02-27T20:50:39.995Z,32.65
2018-02-27T20:53:06.703Z,28.20
2018-02-27T20:55:33.413Z,29.98
2018-02-27T20:58:00.103Z,33.13
2018-02-27T21:00:26.855Z,31.42
2018-02-27T21:02:53.665Z,31.75
2018-02-27T21:05:20.676Z,34.15
2018-02-27T21:07:47.468Z,30.95
2018-02-27T21:10:14.217Z,29.67
2018-02-27T21:12:41.982Z,37.83
2018-02-27T21:15:08.998Z,40.25
2018-02-27T21:17:36.109Z,40.50
2018-02-27T21:20:03.189Z,36.97
2018-02-27T21:22:30.261Z,32.67
2018-02-27T21:24:56.982Z,32.08
2018-02-27T21:27:23.762Z,36.15
2018-02-27T21:29:50.722Z,32.00
2018-02-27T21:32:18.467Z,27.15
2018-02-27T21:34:45.700Z,29.60
2018-02-27T21:37:12.568Z,33.10
2018-02-27T21:39:39.385Z,31.00
2018-02-27T21:42:06.229Z,31.77
2018-02-27T21:44:33.604Z,28.70
2018-02-27T21:47:00.397Z,33.58
2018-02-27T21:49:27.124Z,32.97
2018-02-27T21:51:53.923Z,33.60
2018-02-27T21:54:20.593Z,33.78
2018-02-27T21:56:47.292Z,36.97
2018-02-27T21:59:13.988Z,35.10
2018-02-27T22:01:41.502Z,38.78
2018-02-27T22:04:08.208Z,29.77
2018-02-27T22:06:38.935Z,33.25
2018-02-27T22:09:05.859Z,31.08
2018-02-27T22:11:32.585Z,34.30
2018-02-27T22:13:59.363Z,36.28
2018-02-27T22:16:26.296Z,33.25
2018-02-27T22:18:53.046Z,39.03
2018-02-27T22:21:19.710Z,38.00
2018-02-27T22:23:46.426Z,34.78
2018-02-27T22:26:14.033Z,31.05
2018-02-27T22:28:41.186Z,36.65
2018-02-27T22:31:07.821Z,37.97
2018-02-27T22:33:34.513Z,34.95
2018-02-27T22:36:01.221Z,35.17
2018-02-27T22:38:27.918Z,35.50
2018-02-27T22:40:55.488Z,32.35
2018-02-27T22:43:22.171Z,30.35
2018-02-27T22:45:48.864Z,35.75
2018-02-27T22:48:15.617Z,37.80
2018-02-27T22:50:42.283Z,33.22
2018-02-27T22:53:08.940Z,34.70
2018-02-27T22:55:35.639Z,34.58
2018-02-27T22:58:02.301Z,35.80
2018-02-27T23:00:34.936Z,32.60
2018-02-27T23:03:01.613Z,42.13
2018-02-27T23:05:28.509Z,34.83
2018-02-27T23:07:55.178Z,41.15
2018-02-27T23:10:21.961Z,34.70
2018-02-27T23:12:48.896Z,37.15
2018-02-27T23:15:15.688Z,37.63
2018-02-27T23:17:42.355Z,36.70
2018-02-27T23:20:09.100Z,37.67
2018-02-27T23:22:35.749Z,33.78
2018-02-27T23:25:03.131Z,30.30
2018-02-27T23:27:30.046Z,31.55
2018-02-27T23:29:58.008Z,33.78
2018-02-27T23:32:30.198Z,43.78
2018-02-27T23:35:05.901Z,32.42
2018-02-27T23:37:32.588Z,35.28
2018-02-27T23:39:59.209Z,34.05
2018-02-27T23:42:25.862Z,32.97
2018-02-27T23:44:52.506Z,29.65
2018-02-27T23:47:19.616Z,40.03
2018-02-27T23:49:46.257Z,32.78
2018-02-27T23:52:13.500Z,33.17
2018-02-27T23:54:40.154Z,37.25
2018-02-27T23:57:07.344Z,34.97
2018-02-27T23:59:34.008Z,30.48
